Time;durP1;ratioP1;P1;durP2;ratioP2;P2;SDS_P1;SDS_P2;PMS_P1;PMS_P2;Temp;Humidity;BMP_temperature;BMP_pressure;BME280_temperature;BME280_humidity;BME280_pressure;Samples;Min_cycle;Max_cycle;Signal;HPM_P1;HPM_P2
2023/06/05 00:01:13;;;;;;;2.42;1.45;;;23.50;40.60;;;;;;4958829;28;87299;-87
2023/06/05 00:03:39;;;;;;;2.47;1.08;;;23.50;40.70;;;;;;4958189;28;89476;-88
2023/06/05 00:06:05;;;;;;;1.40;1.27;;;23.50;40.60;;;;;;4956194;28;88100;-87
2023/06/05 00:08:31;;;;;;;2.05;1.20;;;23.50;40.60;;;;;;4957306;28;86721;-87
2023/06/05 00:10:57;;;;;;;1.20;1.10;;;23.50;40.70;;;;;;4966640;28;85929;-88
2023/06/05 00:13:22;;;;;;;0.93;0.85;;;23.40;40.60;;;;;;4967690;28;86885;-88
2023/06/05 00:15:48;;;;;;;1.30;1.10;;;23.50;40.70;;;;;;4964658;28;89121;-89
2023/06/05 00:18:14;;;;;;;1.63;1.00;;;23.50;40.90;;;;;;4965843;28;86679;-87
2023/06/05 00:20:40;;;;;;;1.13;1.02;;;23.40;40.80;;;;;;4955370;28;86081;-87
2023/06/05 00:23:06;;;;;;;2.83;0.98;;;23.40;40.80;;;;;;4954344;28;88988;-87
2023/06/05 00:25:31;;;;;;;1.40;1.20;;;23.50;41.00;;;;;;4965934;28;86907;-89
2023/06/05 00:27:57;;;;;;;2.00;1.10;;;23.40;40.90;;;;;;4967292;28;86339;-87
2023/06/05 00:30:23;;;;;;;1.92;1.35;;;23.40;41.10;;;;;;4952983;28;86141;-88
2023/06/05 00:32:48;;;;;;;3.08;1.38;;;23.40;41.10;;;;;;4954613;28;89306;-87
2023/06/05 00:35:14;;;;;;;1.73;1.17;;;23.40;41.10;;;;;;4955728;28;88906;-87
2023/06/05 00:37:39;;;;;;;1.30;1.00;;;23.40;41.00;;;;;;4954294;28;86093;-88
2023/06/05 00:40:06;;;;;;;1.95;1.20;;;23.40;41.00;;;;;;4978478;28;86476;-87
2023/06/05 00:42:32;;;;;;;1.30;1.08;;;23.40;41.10;;;;;;4976860;28;90474;-88
2023/06/05 00:44:58;;;;;;;1.10;1.00;;;23.40;41.40;;;;;;4984536;28;88669;-88
2023/06/05 00:47:24;;;;;;;3.72;1.48;;;23.40;41.20;;;;;;4977606;28;85950;-89
2023/06/05 00:49:49;;;;;;;1.40;1.05;;;23.40;41.20;;;;;;4980001;28;85709;-88
2023/06/05 00:52:16;;;;;;;1.30;1.15;;;23.40;41.30;;;;;;4977996;28;90258;-89
2023/06/05 00:54:43;;;;;;;1.50;1.15;;;23.40;41.30;;;;;;4980197;28;88831;-87
2023/06/05 00:57:09;;;;;;;1.10;0.90;;;23.40;41.20;;;;;;4975927;28;86198;-88
2023/06/05 00:59:36;;;;;;;1.83;0.98;;;23.40;41.50;;;;;;4986572;28;86168;-87
2023/06/05 01:02:02;;;;;;;2.25;1.00;;;23.40;41.40;;;;;;4979243;28;88725;-87
2023/06/05 01:04:32;;;;;;;1.20;1.10;;;23.40;41.40;;;;;;4977734;28;88048;-88
2023/06/05 01:07:00;;;;;;;2.28;1.10;;;23.40;41.70;;;;;;4979401;28;86636;-89
2023/06/05 01:09:27;;;;;;;2.47;1.20;;;23.40;41.50;;;;;;4980288;28;86583;-89
2023/06/05 01:12:05;;;;;;;1.17;1.00;;;23.40;41.50;;;;;;4980010;28;89662;-88
2023/06/05 01:14:34;;;;;;;2.20;1.20;;;23.40;41.80;;;;;;4980816;28;88898;-87
2023/06/05 01:17:02;;;;;;;3.28;1.40;;;23.40;41.70;;;;;;4988082;28;86300;-87
2023/06/05 01:19:31;;;;;;;1.45;1.30;;;23.40;41.80;;;;;;4988268;28;86229;-86
2023/06/05 01:21:57;;;;;;;1.67;1.25;;;23.40;41.80;;;;;;4990209;28;86499;-88
2023/06/05 01:24:25;;;;;;;1.63;1.15;;;23.40;41.90;;;;;;4979052;28;87853;-87
2023/06/05 01:27:15;;;;;;;1.38;1.10;;;23.40;41.90;;;;;;4981675;28;86614;-88
2023/06/05 01:30:03;;;;;;;1.17;1.00;;;23.40;42.10;;;;;;4987537;28;86398;-87
2023/06/05 01:32:44;;;;;;;2.10;1.27;;;23.40;42.00;;;;;;4988112;28;86972;-88
2023/06/05 01:35:11;;;;;;;2.60;1.33;;;23.40;42.20;;;;;;4987719;28;89076;-87
2023/06/05 01:37:40;;;;;;;2.30;1.35;;;23.40;42.20;;;;;;4980642;28;86098;-88
2023/06/05 01:40:22;;;;;;;1.70;1.02;;;23.40;42.20;;;;;;4981068;28;86518;-87
2023/06/05 01:42:48;;;;;;;1.23;1.00;;;23.40;42.10;;;;;;4986497;28;89570;-86
2023/06/05 01:45:15;;;;;;;0.90;0.80;;;23.40;42.20;;;;;;4980080;28;88120;-90
2023/06/05 01:47:42;;;;;;;1.00;0.80;;;23.40;42.30;;;;;;4979691;28;86283;-87
2023/06/05 01:50:08;;;;;;;1.08;0.98;;;23.30;42.30;;;;;;4988924;28;86464;-88
2023/06/05 01:52:39;;;;;;;1.30;1.20;;;23.30;42.30;;;;;;4988125;28;87417;-88
2023/06/05 01:55:06;;;;;;;2.38;1.02;;;23.40;42.40;;;;;;4980076;28;89060;-87
2023/06/05 01:57:33;;;;;;;1.08;0.98;;;23.30;42.40;;;;;;5001338;28;86437;-87
2023/06/05 02:00:04;;;;;;;1.23;1.00;;;23.30;42.50;;;;;;4986783;28;85905;-87
2023/06/05 02:02:30;;;;;;;1.35;1.25;;;23.30;42.60;;;;;;4979830;28;88208;-87
2023/06/05 02:04:59;;;;;;;1.52;1.23;;;23.40;42.50;;;;;;4983102;28;89197;-88
2023/06/05 02:07:24;;;;;;;;;;;23.40;42.60;;;;;;4980395;28;86123;-88
2023/06/05 02:09:50;;;;;;;1.30;1.10;;;23.30;42.70;;;;;;4980847;28;86565;-89
2023/06/05 02:12:16;;;;;;;1.10;0.90;;;23.30;42.50;;;;;;4979697;28;89710;-88
2023/06/05 02:14:44;;;;;;;1.27;0.85;;;23.30;42.40;;;;;;4979859;28;89016;-89
2023/06/05 02:17:13;;;;;;;2.03;1.23;;;23.30;42.60;;;;;;4974611;28;86416;-88
2023/06/05 02:19:39;;;;;;;1.52;1.15;;;23.40;43.10;;;;;;4978930;28;86167;-87
2023/06/05 02:22:05;;;;;;;1.13;1.00;;;23.30;42.60;;;;;;4977661;28;89390;-88
2023/06/05 02:24:30;;;;;;;1.35;1.02;;;23.30;42.60;;;;;;4975700;28;88770;-87
2023/06/05 02:26:56;;;;;;;1.52;1.00;;;23.30;42.70;;;;;;4977960;28;86447;-88
2023/06/05 02:29:22;;;;;;;1.38;1.15;;;23.30;42.70;;;;;;4976694;28;87460;-89
2023/06/05 02:31:48;;;;;;;1.42;1.05;;;23.30;42.40;;;;;;4988394;28;86199;-87
2023/06/05 02:34:16;;;;;;;1.48;1.23;;;23.30;42.50;;;;;;4979579;28;88832;-89
2023/06/05 02:36:45;;;;;;;1.40;1.10;;;23.30;42.60;;;;;;4987341;28;86450;-87
2023/06/05 02:39:11;;;;;;;0.82;0.82;;;23.30;42.60;;;;;;4985674;28;85963;-87
2023/06/05 02:41:37;;;;;;;1.27;1.17;;;23.30;42.70;;;;;;4978664;28;88716;-88
2023/06/05 02:44:03;;;;;;;1.33;1.00;;;23.30;42.60;;;;;;4978410;28;89327;-88
2023/06/05 02:46:28;;;;;;;1.15;1.10;;;23.30;42.60;;;;;;4979156;28;86400;-87
2023/06/05 02:48:54;;;;;;;1.88;1.00;;;23.30;42.80;;;;;;4978241;28;86556;-88
2023/06/05 02:51:20;;;;;;;1.83;1.27;;;23.30;42.90;;;;;;4977971;28;88024;-87
2023/06/05 02:53:46;;;;;;;1.20;1.10;;;23.30;43.00;;;;;;4987699;28;86536;-88
2023/06/05 02:56:13;;;;;;;1.73;1.08;;;23.30;43.00;;;;;;4988383;28;86531;-88
2023/06/05 02:58:43;;;;;;;0.98;0.88;;;23.20;43.00;;;;;;4978702;28;86839;-88
2023/06/05 03:01:10;;;;;;;1.35;1.02;;;23.30;43.00;;;;;;4987426;28;88253;-88
2023/06/05 03:03:36;;;;;;;0.93;0.93;;;23.30;43.00;;;;;;4978007;28;87839;-88
2023/06/05 03:06:06;;;;;;;1.38;0.90;;;23.30;43.00;;;;;;4978286;28;86096;-87
2023/06/05 03:08:33;;;;;;;0.98;0.90;;;23.20;43.70;;;;;;4978087;28;86903;-87
2023/06/05 03:11:00;;;;;;;1.00;0.90;;;23.20;43.10;;;;;;4986586;28;87613;-88
2023/06/05 03:13:26;;;;;;;1.10;1.00;;;23.20;43.10;;;;;;4978714;28;87653;-87
2023/06/05 03:15:56;;;;;;;0.80;0.80;;;23.20;43.20;;;;;;4978006;28;86583;-87
2023/06/05 03:18:24;;;;;;;1.05;0.90;;;23.20;43.20;;;;;;4986910;28;86626;-88
2023/06/05 03:20:54;;;;;;;1.58;1.00;;;23.20;43.10;;;;;;4978186;28;88493;-87
2023/06/05 03:23:27;;;;;;;1.10;1.00;;;23.20;43.10;;;;;;4985485;28;87688;-87
2023/06/05 03:25:54;;;;;;;1.30;1.05;;;23.20;43.20;;;;;;4977383;28;86217;-87
2023/06/05 03:28:21;;;;;;;1.35;1.00;;;23.20;43.30;;;;;;4985981;28;86224;-88
2023/06/05 03:30:47;;;;;;;1.13;0.80;;;23.20;43.30;;;;;;4975996;28;89830;-88
2023/06/05 03:33:17;;;;;;;1.77;1.13;;;23.20;43.30;;;;;;4985064;28;89125;-88
2023/06/05 03:35:46;;;;;;;1.10;1.00;;;23.20;43.20;;;;;;4987224;28;86207;-88
2023/06/05 03:38:12;;;;;;;0.70;0.70;;;23.20;43.50;;;;;;4971168;28;86984;-88
2023/06/05 03:40:39;;;;;;;0.93;0.85;;;23.20;43.40;;;;;;4986017;28;87579;-88
2023/06/05 03:43:05;;;;;;;1.33;1.05;;;23.20;43.40;;;;;;4980617;28;89009;-89
2023/06/05 03:45:31;;;;;;;0.88;0.82;;;23.20;43.50;;;;;;4985290;28;86206;-88
2023/06/05 03:47:59;;;;;;;1.13;1.00;;;23.20;43.60;;;;;;4984352;28;86265;-88
2023/06/05 03:50:28;;;;;;;1.52;1.10;;;23.20;43.50;;;;;;4973137;28;89583;-88
2023/06/05 03:53:02;;;;;;;3.90;0.93;;;23.20;43.70;;;;;;4984877;28;89279;-87
2023/06/05 03:55:41;;;;;;;0.90;0.80;;;23.20;43.60;;;;;;4985674;28;86644;-89
2023/06/05 03:58:14;;;;;;;1.23;1.13;;;23.20;43.60;;;;;;4982686;28;86625;-88
2023/06/05 04:00:45;;;;;;;1.13;0.90;;;23.20;43.60;;;;;;4985044;28;89192;-87
2023/06/05 04:03:11;;;;;;;1.40;1.15;;;23.20;43.70;;;;;;4977873;28;89489;-87
2023/06/05 04:05:38;;;;;;;1.30;1.00;;;23.20;43.70;;;;;;4974988;28;86908;-88
2023/06/05 04:08:04;;;;;;;1.38;0.98;;;23.20;43.80;;;;;;4984089;28;86696;-88
2023/06/05 04:10:30;;;;;;;1.00;0.90;;;23.20;43.80;;;;;;4976076;28;89488;-89
2023/06/05 04:12:56;;;;;;;1.10;1.00;;;23.20;43.80;;;;;;4986767;28;86527;-88
2023/06/05 04:15:25;;;;;;;1.80;1.00;;;23.20;43.80;;;;;;4978586;28;86060;-88
2023/06/05 04:17:51;;;;;;;;;;;23.20;43.70;;;;;;4976803;28;86217;-88
2023/06/05 04:20:16;;;;;;;1.40;1.05;;;23.20;43.70;;;;;;4987886;28;87513;-88
2023/06/05 04:22:43;;;;;;;1.05;0.80;;;23.20;43.80;;;;;;4981143;28;88393;-86
2023/06/05 04:25:10;;;;;;;1.27;1.10;;;23.20;43.80;;;;;;4980786;28;86429;-88
2023/06/05 04:27:38;;;;;;;1.33;1.10;;;23.20;43.80;;;;;;4990041;28;86003;-88
2023/06/05 04:30:05;;;;;;;1.90;0.85;;;23.20;43.80;;;;;;4989912;28;87727;-87
2023/06/05 04:32:37;;;;;;;1.42;0.95;;;23.20;43.80;;;;;;4977852;28;88405;-88
2023/06/05 04:35:08;;;;;;;1.30;1.20;;;23.20;43.70;;;;;;4980391;28;86175;-89
2023/06/05 04:37:37;;;;;;;0.90;0.80;;;23.30;43.70;;;;;;4978293;28;86438;-87
2023/06/05 04:40:09;;;;;;;;;;;23.20;43.80;;;;;;4983295;28;90138;-88
2023/06/05 04:42:36;;;;;;;1.15;1.02;;;23.30;43.90;;;;;;4982189;28;89022;-88
2023/06/05 04:45:07;;;;;;;0.80;0.70;;;23.20;43.80;;;;;;4988187;28;86765;-88
2023/06/05 04:47:33;;;;;;;1.60;1.20;;;23.30;43.90;;;;;;4976715;28;86566;-88
2023/06/05 04:50:04;;;;;;;1.20;1.10;;;23.30;44.00;;;;;;4988997;28;86182;-88
2023/06/05 04:52:35;;;;;;;1.00;0.82;;;23.30;43.70;;;;;;4978335;28;88938;-88
2023/06/05 04:55:02;;;;;;;1.10;0.80;;;23.40;43.70;;;;;;4980248;28;85859;-87
2023/06/05 04:57:29;;;;;;;1.48;1.38;;;23.40;43.80;;;;;;4979162;28;86398;-88
2023/06/05 04:59:56;;;;;;;1.17;0.95;;;23.40;43.90;;;;;;4989336;28;86544;-88
2023/06/05 05:02:22;;;;;;;0.88;0.80;;;23.40;43.80;;;;;;4978355;28;88843;-88
2023/06/05 05:04:48;;;;;;;1.60;1.00;;;23.40;43.80;;;;;;4979701;28;86555;-88
2023/06/05 05:07:16;;;;;;;1.27;1.13;;;23.40;43.60;;;;;;4980840;28;86015;-89
2023/06/05 05:09:42;;;;;;;1.13;0.90;;;23.50;43.70;;;;;;4979842;28;88801;-87
2023/06/05 05:12:09;;;;;;;0.90;0.82;;;23.50;43.50;;;;;;4989120;28;86313;-88
2023/06/05 05:14:36;;;;;;;1.10;1.00;;;23.60;43.80;;;;;;4986830;28;86321;-89
2023/06/05 05:17:03;;;;;;;0.75;0.75;;;23.60;43.70;;;;;;4980307;28;86932;-88
2023/06/05 05:19:29;;;;;;;1.10;1.00;;;23.60;43.50;;;;;;4981349;28;89147;-87
2023/06/05 05:21:55;;;;;;;1.10;1.00;;;23.60;43.60;;;;;;4988553;28;88613;-88
2023/06/05 05:24:20;;;;;;;0.93;0.90;;;23.60;43.60;;;;;;4986615;28;86464;-85
2023/06/05 05:26:46;;;;;;;1.10;1.00;;;23.60;43.60;;;;;;4988609;28;86181;-90
2023/06/05 05:29:12;;;;;;;1.63;1.40;;;23.70;43.50;;;;;;4989543;28;90004;-89
2023/06/05 05:31:37;;;;;;;1.70;1.40;;;23.70;43.30;;;;;;4990828;28;86283;-90
2023/06/05 05:34:03;;;;;;;2.95;1.30;;;23.60;43.20;;;;;;4984509;28;86528;-89
2023/06/05 05:36:29;;;;;;;3.80;1.27;;;23.60;43.50;;;;;;4989767;28;86265;-87
2023/06/05 05:38:54;;;;;;;2.95;1.30;;;23.60;43.60;;;;;;4990783;28;87190;-89
2023/06/05 05:41:21;;;;;;;3.38;1.75;;;23.60;43.70;;;;;;4991214;28;86171;-89
2023/06/05 05:43:46;;;;;;;5.10;1.70;;;23.50;44.10;;;;;;4982827;28;86999;-88
2023/06/05 05:46:12;;;;;;;2.67;2.00;;;23.60;44.10;;;;;;4992284;28;85666;-90
2023/06/05 05:48:38;;;;;;;7.80;2.40;;;23.60;44.20;;;;;;4990430;28;86396;-89
2023/06/05 05:51:06;;;;;;;7.32;2.00;;;23.60;44.30;;;;;;4990903;28;86315;-86
2023/06/05 05:53:31;;;;;;;6.65;2.90;;;23.60;44.40;;;;;;4990558;28;86747;-87
2023/06/05 05:55:57;;;;;;;8.18;2.80;;;23.70;44.50;;;;;;4989882;28;86251;-88
2023/06/05 05:58:23;;;;;;;8.13;2.90;;;23.80;44.40;;;;;;4981391;28;87979;-88
2023/06/05 06:00:49;;;;;;;11.48;3.65;;;23.80;44.40;;;;;;4981006;28;89249;-87
2023/06/05 06:03:17;;;;;;;8.23;3.33;;;23.70;44.30;;;;;;4985603;28;85676;-86
2023/06/05 06:05:43;;;;;;;6.05;3.28;;;23.70;43.90;;;;;;4976432;28;86488;-86
2023/06/05 06:08:08;;;;;;;9.98;3.80;;;23.60;43.50;;;;;;4986643;28;86443;-86
2023/06/05 06:10:34;;;;;;;5.88;2.90;;;23.50;43.30;;;;;;4986094;28;86594;-87
2023/06/05 06:13:00;;;;;;;6.32;2.80;;;23.40;43.10;;;;;;4987817;28;86027;-87
2023/06/05 06:15:27;;;;;;;5.75;2.97;;;23.40;43.40;;;;;;4986812;28;94844;-87
2023/06/05 06:17:53;;;;;;;8.95;3.20;;;23.40;43.40;;;;;;4986963;28;88206;-88
2023/06/05 06:20:18;;;;;;;5.18;2.72;;;23.30;43.40;;;;;;4986909;28;86465;-88
2023/06/05 06:22:44;;;;;;;7.18;3.28;;;23.30;43.20;;;;;;4979301;28;86696;-87
2023/06/05 06:27:48;;;;;;;9.02;3.15;;;23.30;43.20;;;;;;4984747;28;90463;-89
2023/06/05 06:30:14;;;;;;;9.00;3.20;;;23.30;43.10;;;;;;4986564;28;87257;-86
2023/06/05 06:32:40;;;;;;;6.05;3.08;;;23.30;43.20;;;;;;4984936;28;86748;-85
2023/06/05 06:35:06;;;;;;;7.85;2.80;;;23.40;43.50;;;;;;4981962;28;86337;-85
2023/06/05 06:37:32;;;;;;;4.65;2.63;;;23.40;43.40;;;;;;4984244;28;88945;-86
2023/06/05 06:39:58;;;;;;;5.78;2.95;;;23.50;43.20;;;;;;4985415;28;87094;-86
2023/06/05 06:42:24;;;;;;;8.95;2.80;;;23.50;43.30;;;;;;4985654;28;86187;-86
2023/06/05 06:44:55;;;;;;;5.90;2.90;;;23.50;43.40;;;;;;4973387;28;86198;-86
2023/06/05 06:47:21;;;;;;;8.75;2.50;;;23.60;43.40;;;;;;4985285;28;87053;-88
2023/06/05 06:49:47;;;;;;;6.53;2.72;;;23.50;43.30;;;;;;4989259;28;87264;-86
2023/06/05 06:52:13;;;;;;;6.60;2.65;;;23.50;43.50;;;;;;4990210;28;86245;-88
2023/06/05 06:54:38;;;;;;;7.57;3.22;;;23.50;43.60;;;;;;4990030;28;86477;-86
2023/06/05 06:57:05;;;;;;;5.28;2.80;;;23.50;43.70;;;;;;4988440;28;88768;-86
2023/06/05 06:59:30;;;;;;;4.68;2.63;;;23.50;43.80;;;;;;4983410;28;89568;-89
2023/06/05 07:02:17;;;;;;;8.23;2.85;;;23.60;43.70;;;;;;4984040;28;87207;-88
2023/06/05 07:04:43;;;;;;;10.55;2.85;;;23.70;43.70;;;;;;4989739;28;86611;-91
2023/06/05 07:07:13;;;;;;;7.15;2.97;;;23.70;43.90;;;;;;4990314;28;86963;-89
2023/06/05 07:09:43;;;;;;;7.55;2.78;;;23.60;44.10;;;;;;4987563;28;89237;-89
2023/06/05 07:12:13;;;;;;;9.63;2.67;;;23.50;44.40;;;;;;4989192;28;86654;-88
2023/06/05 07:14:39;;;;;;;20.23;5.43;;;23.50;45.10;;;;;;4988132;28;86253;-87
2023/06/05 07:17:05;;;;;;;26.60;6.93;;;23.50;44.70;;;;;;4988141;28;87409;-88
2023/06/05 07:19:32;;;;;;;24.67;5.68;;;23.50;45.00;;;;;;4989860;28;86546;-88
2023/06/05 07:21:59;;;;;;;35.13;8.65;;;23.60;45.20;;;;;;4990099;28;86237;-89
2023/06/05 07:24:26;;;;;;;38.58;8.00;;;23.60;44.90;;;;;;4982599;28;86401;-88
2023/06/05 07:26:55;;;;;;;34.63;8.85;;;23.60;44.70;;;;;;4989765;28;86733;-85
2023/06/05 07:29:24;;;;;;;35.70;8.50;;;23.70;44.90;;;;;;4989096;28;86477;-85
2023/06/05 07:31:51;;;;;;;36.47;10.23;;;23.70;44.70;;;;;;4988272;28;86635;-86
2023/06/05 07:34:21;;;;;;;34.97;9.15;;;23.70;44.50;;;;;;4988439;28;86570;-87
2023/06/05 07:36:50;;;;;;;31.60;8.98;;;23.70;44.70;;;;;;4987768;28;87993;-86
2023/06/05 07:39:16;;;;;;;35.88;9.75;;;23.70;44.40;;;;;;4989469;28;86692;-91
2023/06/05 07:41:42;;;;;;;29.27;7.47;;;23.70;44.50;;;;;;4979663;28;86736;-88
2023/06/05 07:44:13;;;;;;;33.75;8.80;;;23.70;44.50;;;;;;4989069;28;86180;-88
2023/06/05 07:46:47;;;;;;;31.40;7.55;;;23.70;44.40;;;;;;4988405;28;85810;-88
2023/06/05 07:49:12;;;;;;;31.48;7.82;;;23.80;44.40;;;;;;4979165;28;87841;-86
2023/06/05 07:51:39;;;;;;;23.98;6.43;;;23.80;44.30;;;;;;4979517;28;86154;-90
2023/06/05 07:54:06;;;;;;;17.52;6.63;;;23.80;44.40;;;;;;4989501;28;85878;-87
2023/06/05 07:56:33;;;;;;;26.48;7.00;;;23.80;44.40;;;;;;4988695;28;87728;-89
2023/06/05 07:58:59;;;;;;;20.35;6.15;;;23.80;44.60;;;;;;4983406;28;88987;-87
2023/06/05 08:01:25;;;;;;;24.42;6.47;;;23.80;44.40;;;;;;4990586;28;85612;-90
2023/06/05 08:03:51;;;;;;;16.90;5.78;;;23.80;44.20;;;;;;4981934;28;86886;-89
2023/06/05 08:06:18;;;;;;;21.30;6.30;;;23.80;44.90;;;;;;4986754;28;87577;-87
2023/06/05 08:08:44;;;;;;;18.83;5.65;;;23.80;44.20;;;;;;4980559;28;87267;-87
2023/06/05 08:11:10;;;;;;;21.02;5.40;;;23.80;44.40;;;;;;4980685;28;87276;-85
2023/06/05 08:13:38;;;;;;;15.75;4.95;;;23.90;44.30;;;;;;4988404;28;86328;-89
2023/06/05 08:16:04;;;;;;;21.13;6.57;;;23.90;44.20;;;;;;4977515;28;88300;-86
2023/06/05 08:18:30;;;;;;;15.63;5.65;;;23.90;44.20;;;;;;4977841;28;86720;-88
2023/06/05 08:20:55;;;;;;;9.90;3.95;;;23.90;44.10;;;;;;4988769;28;86452;-88
2023/06/05 08:23:21;;;;;;;14.85;5.20;;;23.90;44.30;;;;;;4988299;28;86468;-89
2023/06/05 08:25:48;;;;;;;18.23;5.90;;;23.90;44.40;;;;;;4987591;28;86786;-87
2023/06/05 08:28:17;;;;;;;13.55;4.95;;;23.90;44.40;;;;;;4988691;28;86454;-89
2023/06/05 08:30:44;;;;;;;12.32;4.13;;;23.90;44.20;;;;;;4987469;28;86359;-87
2023/06/05 08:33:10;;;;;;;14.68;4.65;;;23.90;44.20;;;;;;4988510;28;86286;-90
2023/06/05 08:35:36;;;;;;;15.10;4.72;;;24.00;44.30;;;;;;4988707;28;86665;-86
2023/06/05 08:38:03;;;;;;;10.73;4.32;;;23.90;44.10;;;;;;4988746;28;86115;-88
2023/06/05 08:40:29;;;;;;;9.98;4.35;;;23.90;44.10;;;;;;4979248;28;86872;-87
2023/06/05 08:42:56;;;;;;;11.80;4.45;;;23.90;44.30;;;;;;4990411;28;86641;-89
2023/06/05 08:45:22;;;;;;;7.60;3.72;;;24.00;44.10;;;;;;4982446;28;88509;-87
2023/06/05 08:47:51;;;;;;;9.02;4.15;;;24.00;44.00;;;;;;4979664;28;89657;-89
2023/06/05 08:50:17;;;;;;;8.52;3.17;;;24.00;44.30;;;;;;4988506;28;86645;-89
2023/06/05 08:52:45;;;;;;;8.43;3.83;;;23.90;44.10;;;;;;4989197;28;86996;-90
2023/06/05 08:55:11;;;;;;;9.98;3.58;;;24.00;44.30;;;;;;4990065;28;87136;-89
2023/06/05 08:57:43;;;;;;;8.52;3.42;;;24.00;44.30;;;;;;4979501;28;88623;-90
2023/06/05 09:00:10;;;;;;;8.88;3.33;;;24.00;44.30;;;;;;4990178;28;85958;-89
2023/06/05 09:02:39;;;;;;;8.18;3.55;;;24.00;44.30;;;;;;4989086;28;87038;-89
2023/06/05 09:05:05;;;;;;;7.22;3.15;;;24.00;44.30;;;;;;4988401;28;86935;-90
2023/06/05 09:07:32;;;;;;;8.05;3.10;;;24.00;44.30;;;;;;4989862;28;86930;-87
2023/06/05 09:09:58;;;;;;;7.18;2.92;;;24.00;44.20;;;;;;4983377;28;85949;-89
2023/06/05 09:12:27;;;;;;;7.60;3.58;;;24.00;44.30;;;;;;4992258;28;85975;-87
2023/06/05 09:14:52;;;;;;;9.73;3.65;;;24.00;44.20;;;;;;4992519;28;86529;-88
2023/06/05 09:17:21;;;;;;;6.38;3.03;;;24.00;44.10;;;;;;4991607;28;86256;-88
2023/06/05 09:19:47;;;;;;;7.15;3.33;;;24.00;44.30;;;;;;4993115;28;86488;-89
2023/06/05 09:22:14;;;;;;;7.07;3.22;;;24.00;44.50;;;;;;4992446;28;86465;-85
2023/06/05 09:24:41;;;;;;;7.72;3.38;;;24.00;44.40;;;;;;4990258;28;86206;-85
2023/06/05 09:27:09;;;;;;;7.38;2.78;;;24.00;44.30;;;;;;4981701;28;88952;-86
2023/06/05 09:29:39;;;;;;;6.18;2.92;;;24.00;44.30;;;;;;4991718;28;86263;-89
2023/06/05 09:32:15;;;;;;;4.88;2.65;;;24.00;44.40;;;;;;4991596;28;86071;-89
2023/06/05 09:34:41;;;;;;;7.55;2.70;;;24.00;44.30;;;;;;4991544;28;86767;-87
2023/06/05 09:37:08;;;;;;;5.20;2.35;;;24.00;44.40;;;;;;4991872;28;86057;-87
2023/06/05 09:39:35;;;;;;;7.38;3.40;;;24.00;44.50;;;;;;4991448;28;86779;-88
2023/06/05 09:42:02;;;;;;;6.40;2.88;;;24.00;44.30;;;;;;4992004;28;86273;-86
2023/06/05 09:44:29;;;;;;;3.97;2.60;;;24.00;44.40;;;;;;4991435;28;88647;-85
2023/06/05 09:46:57;;;;;;;6.25;3.00;;;24.00;44.50;;;;;;4991410;28;86313;-90
2023/06/05 09:49:30;;;;;;;4.55;2.25;;;24.00;44.50;;;;;;4992542;28;86549;-90
2023/06/05 09:52:00;;;;;;;4.00;2.53;;;24.00;44.50;;;;;;4990933;28;86709;-86
2023/06/05 09:54:30;;;;;;;10.40;2.95;;;24.00;44.40;;;;;;4991345;28;86838;-85
2023/06/05 09:57:09;;;;;;;3.80;2.78;;;24.00;44.60;;;;;;4989799;28;87855;-88
2023/06/05 09:59:42;;;;;;;7.53;2.92;;;24.00;44.40;;;;;;4979997;28;86673;-87
2023/06/05 10:02:09;;;;;;;4.57;2.80;;;24.00;44.50;;;;;;4990273;28;86467;-86
2023/06/05 10:04:41;;;;;;;4.63;2.60;;;24.00;44.50;;;;;;4991170;28;87301;-88
2023/06/05 10:07:08;;;;;;;5.40;2.30;;;24.00;44.50;;;;;;4984414;28;88888;-85
2023/06/05 10:09:35;;;;;;;5.38;2.78;;;24.00;44.60;;;;;;4991776;28;85901;-86
2023/06/05 10:12:03;;;;;;;6.35;2.55;;;24.00;44.60;;;;;;4983200;28;86366;-88
2023/06/05 10:14:29;;;;;;;4.90;2.42;;;24.00;44.50;;;;;;4989058;28;90773;-87
2023/06/05 10:16:56;;;;;;;3.72;2.30;;;24.00;44.40;;;;;;4981535;28;88558;-89
2023/06/05 10:19:24;;;;;;;5.05;2.90;;;24.00;45.40;;;;;;4983703;28;85838;-90
2023/06/05 10:21:50;;;;;;;3.90;2.60;;;24.00;44.60;;;;;;5008046;28;86762;-88
2023/06/05 10:24:21;;;;;;;7.30;2.72;;;24.00;44.40;;;;;;4990671;28;86822;-87
2023/06/05 10:27:09;;;;;;;5.32;3.15;;;24.00;44.60;;;;;;4989606;28;87426;-89
2023/06/05 10:29:54;;;;;;;3.63;2.07;;;24.00;44.60;;;;;;4988097;28;86504;-87
2023/06/05 10:32:29;;;;;;;5.30;2.35;;;24.00;44.50;;;;;;4989359;28;85934;-86
2023/06/05 10:35:22;;;;;;;4.65;2.83;;;24.00;44.60;;;;;;4990266;28;86276;-89
2023/06/05 10:38:13;;;;;;;5.75;2.58;;;24.00;44.60;;;;;;4988534;28;87960;-88
2023/06/05 10:40:39;;;;;;;4.03;2.33;;;24.00;44.60;;;;;;4988699;28;86686;-89
2023/06/05 10:43:31;;;;;;;6.05;2.60;;;24.00;44.60;;;;;;4984411;28;86729;-89
2023/06/05 10:46:00;;;;;;;5.57;2.75;;;24.00;44.60;;;;;;4989777;28;90727;-89
2023/06/05 10:49:03;;;;;;;6.17;2.53;;;24.00;44.60;;;;;;4990570;28;86276;-87
2023/06/05 10:51:37;;;;;;;3.95;2.05;;;23.90;44.60;;;;;;4989883;28;86938;-90
2023/06/05 10:54:05;;;;;;;5.10;2.30;;;23.90;44.70;;;;;;4987203;28;86278;-89
2023/06/05 10:56:50;;;;;;;5.97;1.83;;;23.90;44.60;;;;;;4989103;28;86432;-89
2023/06/05 10:59:17;;;;;;;3.92;2.35;;;23.90;44.50;;;;;;4988423;28;86554;-85
2023/06/05 11:01:43;;;;;;;5.10;2.80;;;23.90;44.60;;;;;;4988542;28;86500;-89
2023/06/05 11:04:09;;;;;;;4.28;2.33;;;23.90;44.40;;;;;;4990158;28;86073;-90
2023/06/05 11:06:37;;;;;;;4.65;2.50;;;23.90;44.50;;;;;;4979828;28;89061;-88
2023/06/05 11:09:08;;;;;;;4.53;2.50;;;23.90;44.70;;;;;;4989529;28;86656;-89
2023/06/05 11:11:57;;;;;;;3.15;2.17;;;23.90;44.60;;;;;;4989579;28;86085;-90
2023/06/05 11:14:24;;;;;;;3.67;2.33;;;23.90;44.40;;;;;;4989363;28;86048;-89
2023/06/05 11:16:49;;;;;;;5.40;2.40;;;23.90;44.40;;;;;;4988395;28;86303;-85
2023/06/05 11:19:22;;;;;;;6.18;2.80;;;23.90;44.70;;;;;;4990349;28;87268;-89
2023/06/05 11:22:09;;;;;;;2.88;2.15;;;23.90;44.60;;;;;;4989429;28;85645;-88
2023/06/05 11:24:36;;;;;;;5.00;2.40;;;23.90;44.30;;;;;;4987808;28;86735;-88
2023/06/05 11:27:05;;;;;;;5.43;2.25;;;23.90;44.60;;;;;;4989445;28;86154;-88
2023/06/05 11:29:31;;;;;;;3.30;1.95;;;23.90;44.50;;;;;;4988779;28;86653;-89
2023/06/05 11:31:57;;;;;;;6.35;2.10;;;23.90;44.60;;;;;;4989732;28;86222;-86
2023/06/05 11:34:23;;;;;;;3.95;2.35;;;23.90;44.60;;;;;;4990324;28;86279;-88
2023/06/05 11:36:49;;;;;;;3.55;2.00;;;23.90;43.80;;;;;;4989174;28;86716;-88
2023/06/05 11:39:15;;;;;;;3.45;2.17;;;23.90;44.20;;;;;;4989940;28;86486;-89
2023/06/05 11:41:49;;;;;;;2.80;2.00;;;23.90;44.10;;;;;;4988702;28;86398;-86
2023/06/05 11:44:15;;;;;;;3.95;2.50;;;23.90;43.70;;;;;;4988967;28;86896;-89
2023/06/05 11:46:44;;;;;;;3.22;1.90;;;23.90;43.90;;;;;;4989047;28;86766;-90
2023/06/05 11:49:27;;;;;;;2.95;2.00;;;23.90;43.40;;;;;;4989786;28;86228;-87
2023/06/05 11:51:54;;;;;;;3.15;2.30;;;23.90;43.40;;;;;;5003580;28;87885;-89
2023/06/05 11:54:29;;;;;;;2.15;1.80;;;23.90;43.30;;;;;;4989721;28;85787;-90
2023/06/05 11:57:01;;;;;;;3.53;1.83;;;23.90;42.60;;;;;;4989533;28;85828;-88
2023/06/05 11:59:27;;;;;;;3.17;2.10;;;23.90;43.00;;;;;;4989407;28;86806;-84
2023/06/05 12:01:54;;;;;;;2.95;2.15;;;23.90;42.80;;;;;;4989986;28;86720;-89
2023/06/05 12:04:20;;;;;;;8.88;2.17;;;23.90;43.00;;;;;;4987540;28;86025;-85
2023/06/05 12:06:47;;;;;;;2.75;1.95;;;23.80;42.90;;;;;;4988303;28;86750;-93
2023/06/05 12:09:15;;;;;;;2.88;1.80;;;23.90;43.00;;;;;;4981601;28;87560;-88
2023/06/05 12:11:44;;;;;;;5.70;2.20;;;24.00;42.60;;;;;;4986145;28;86377;-88
2023/06/05 12:14:28;;;;;;;3.25;2.03;;;24.00;42.30;;;;;;4985703;28;86551;-88
2023/06/05 12:16:54;;;;;;;2.88;2.08;;;24.00;42.60;;;;;;4983664;28;89218;-87
2023/06/05 12:19:19;;;;;;;3.78;2.05;;;24.00;42.30;;;;;;4986984;28;88369;-87
2023/06/05 12:21:50;;;;;;;6.28;2.10;;;24.00;42.50;;;;;;4981847;28;86891;-88
2023/06/05 12:24:26;;;;;;;5.25;2.10;;;24.10;42.20;;;;;;4982095;28;86110;-85
2023/06/05 12:26:59;;;;;;;4.32;2.10;;;24.10;41.80;;;;;;4980333;28;87776;-87
2023/06/05 12:29:30;;;;;;;4.40;2.13;;;24.10;41.80;;;;;;4974808;28;88523;-88
2023/06/05 12:32:00;;;;;;;5.78;2.03;;;24.20;42.10;;;;;;4974926;28;86348;-85
2023/06/05 12:34:47;;;;;;;6.25;2.00;;;24.20;41.80;;;;;;4975730;28;87053;-86
2023/06/05 12:37:31;;;;;;;8.48;2.10;;;24.20;41.80;;;;;;4980643;28;90035;-87
2023/06/05 12:39:58;;;;;;;4.10;2.33;;;24.20;41.90;;;;;;4978695;28;93372;-88
2023/06/05 12:42:24;;;;;;;8.20;2.10;;;24.20;42.10;;;;;;4983890;28;86650;-87
2023/06/05 12:44:50;;;;;;;3.70;1.70;;;24.20;41.70;;;;;;4988247;28;86667;-87
2023/06/05 12:47:16;;;;;;;7.88;2.13;;;24.20;41.50;;;;;;4988279;28;87092;-87
2023/06/05 12:49:42;;;;;;;5.18;1.75;;;24.20;42.00;;;;;;4987608;28;86239;-87
2023/06/05 12:52:11;;;;;;;4.38;1.98;;;24.10;42.00;;;;;;4990617;28;86452;-90
2023/06/05 12:54:37;;;;;;;6.65;2.03;;;24.10;41.90;;;;;;4993676;28;86203;-92